createdAt,value
2023-06-10T00:00:21.787Z,96666.41
2023-06-10T00:02:48.586Z,96663.66
2023-06-10T00:05:17.404Z,96666.09
2023-06-10T00:07:44.141Z,96666.63
2023-06-10T00:10:11.850Z,96667.25
2023-06-10T00:12:39.714Z,96664.97
2023-06-10T00:15:07.974Z,96661.13
2023-06-10T00:17:35.343Z,96661.84
2023-06-10T00:20:05.986Z,96663.25
2023-06-10T00:22:33.487Z,96668.03
2023-06-10T00:25:00.253Z,96669.38
2023-06-10T00:27:32.524Z,96669.06
2023-06-10T00:30:01.050Z,96666.44
2023-06-10T00:32:27.668Z,96667.13
2023-06-10T00:34:55.823Z,96665.09
2023-06-10T00:37:22.547Z,96673.34
2023-06-10T00:39:49.747Z,96669.66
2023-06-10T00:42:16.440Z,96663.09
2023-06-10T00:44:43.226Z,96664.81
2023-06-10T00:47:10.755Z,96668.19
2023-06-10T00:49:37.746Z,96653.63
2023-06-10T00:52:05.971Z,96669.94
2023-06-10T00:54:33.943Z,96667.81
2023-06-10T00:57:02.465Z,96669.03
2023-06-10T00:59:33.245Z,96665.56
2023-06-10T01:02:00.140Z,96661.91
2023-06-10T01:04:26.766Z,96664.56
2023-06-10T01:07:10.558Z,96669.84
2023-06-10T01:09:46.582Z,96661.59
2023-06-10T01:12:20.678Z,96667.22
2023-06-10T01:14:49.898Z,96676.28
2023-06-10T01:17:18.002Z,96665.78
2023-06-10T01:19:45.621Z,96671.59
2023-06-10T01:22:17.037Z,96666.78
2023-06-10T01:24:45.052Z,96672.19
2023-06-10T01:27:14.340Z,96666.69
2023-06-10T01:29:49.452Z,96677.06
2023-06-10T01:32:19.591Z,96681.66
2023-06-10T01:34:46.875Z,96677.50
2023-06-10T01:37:14.816Z,96683.63
2023-06-10T01:39:41.920Z,96685.44
2023-06-10T01:42:11.558Z,96684.81
2023-06-10T01:44:40.368Z,96689.19
2023-06-10T01:47:08.934Z,96683.31
2023-06-10T01:49:35.852Z,96688.66
2023-06-10T01:52:02.596Z,96692.59
2023-06-10T01:54:29.422Z,96698.59
2023-06-10T01:56:56.129Z,96698.13
2023-06-10T01:59:22.916Z,96697.47
2023-06-10T02:01:49.588Z,96697.50
2023-06-10T02:04:17.621Z,96702.50
2023-06-10T02:06:44.352Z,96701.31
2023-06-10T02:09:11.451Z,96701.69
2023-06-10T02:11:38.149Z,96707.56
2023-06-10T02:14:04.910Z,96713.31
2023-06-10T02:16:32.346Z,96708.66
2023-06-10T02:18:59.806Z,96716.66
2023-06-10T02:21:28.287Z,96711.06
2023-06-10T02:23:54.986Z,96713.34
2023-06-10T02:26:22.116Z,96714.75
2023-06-10T02:28:48.920Z,96717.78
2023-06-10T02:31:15.706Z,96716.81
2023-06-10T02:33:43.050Z,96721.84
2023-06-10T02:36:14.145Z,96726.50
2023-06-10T02:38:41.539Z,96719.34
2023-06-10T02:41:08.325Z,96722.91
2023-06-10T02:43:35.997Z,96726.88
2023-06-10T02:46:03.375Z,96720.78
2023-06-10T02:48:31.381Z,96723.97
2023-06-10T02:50:58.696Z,96725.91
2023-06-10T02:53:32.588Z,96727.56
2023-06-10T02:56:06.000Z,96720.28
2023-06-10T02:58:33.163Z,96724.84
2023-06-10T03:00:59.884Z,96724.09
2023-06-10T03:03:29.203Z,96728.41
2023-06-10T03:06:02.679Z,96730.56
2023-06-10T03:08:30.969Z,96739.00
2023-06-10T03:11:00.049Z,96737.47
2023-06-10T03:13:30.109Z,96736.75
2023-06-10T03:15:57.895Z,96739.13
2023-06-10T03:18:27.948Z,96740.31
2023-06-10T03:20:56.169Z,96740.91
2023-06-10T03:23:24.596Z,96738.53
2023-06-10T03:25:51.842Z,96735.53
2023-06-10T03:28:20.222Z,96747.22
2023-06-10T03:30:48.005Z,96747.59
2023-06-10T03:33:15.103Z,96751.50
2023-06-10T03:35:43.160Z,96752.22
2023-06-10T03:38:10.014Z,96756.72
2023-06-10T03:40:37.251Z,96752.47
2023-06-10T03:43:04.904Z,96755.06
2023-06-10T03:45:33.223Z,96758.75
2023-06-10T03:48:00.481Z,96761.03
2023-06-10T03:50:33.882Z,96765.09
2023-06-10T03:53:00.848Z,96759.72
2023-06-10T03:55:28.501Z,96764.94
2023-06-10T03:57:56.468Z,96769.72
2023-06-10T04:00:23.162Z,96761.50
2023-06-10T04:02:52.822Z,96765.91
2023-06-10T04:05:29.967Z,96770.91
2023-06-10T04:07:58.071Z,96767.34
2023-06-10T04:10:24.859Z,96769.50
2023-06-10T04:12:51.693Z,96768.44
2023-06-10T04:15:19.259Z,96777.59
2023-06-10T04:17:46.888Z,96785.69
2023-06-10T04:20:13.794Z,96780.56
2023-06-10T04:22:45.339Z,96782.59
2023-06-10T04:25:12.926Z,96783.09
2023-06-10T04:27:41.471Z,96786.78
2023-06-10T04:30:08.596Z,96787.97
2023-06-10T04:32:37.777Z,96791.41
2023-06-10T04:35:07.987Z,96794.84
2023-06-10T04:37:35.124Z,96785.16
2023-06-10T04:40:02.540Z,96787.97
2023-06-10T04:42:30.055Z,96797.00
2023-06-10T04:44:56.801Z,96796.94
2023-06-10T04:47:24.313Z,96790.22
2023-06-10T04:49:50.994Z,96792.41
2023-06-10T04:52:19.343Z,96783.50
2023-06-10T04:54:46.658Z,96781.50
2023-06-10T04:57:13.433Z,96779.47
2023-06-10T04:59:40.143Z,96782.03
2023-06-10T05:02:07.030Z,96786.03
2023-06-10T05:04:33.792Z,96782.56
2023-06-10T05:07:00.737Z,96784.69
2023-06-10T05:09:27.616Z,96787.69
2023-06-10T05:11:55.457Z,96789.19
2023-06-10T05:14:22.152Z,96781.69
2023-06-10T05:16:49.469Z,96785.84
2023-06-10T05:19:17.520Z,96793.75
2023-06-10T05:21:45.474Z,96795.06
2023-06-10T05:24:12.693Z,96800.66
2023-06-10T05:26:40.171Z,96797.28
2023-06-10T05:29:07.009Z,96796.88
2023-06-10T05:31:33.893Z,96801.03
2023-06-10T05:34:01.413Z,96807.44
2023-06-10T05:36:28.682Z,96803.44
2023-06-10T05:38:56.052Z,96806.75
2023-06-10T05:41:23.260Z,96798.38
2023-06-10T05:43:50.686Z,96796.28
2023-06-10T05:46:17.882Z,96802.88
2023-06-10T05:48:44.930Z,96800.16
2023-06-10T05:51:12.365Z,96800.09
2023-06-10T05:53:40.149Z,96804.75
2023-06-10T05:56:06.876Z,96808.38
2023-06-10T05:58:33.819Z,96808.44
2023-06-10T06:01:01.447Z,96803.91
2023-06-10T06:03:30.272Z,96803.06
2023-06-10T06:05:57.247Z,96802.50
2023-06-10T06:08:24.284Z,96803.84
2023-06-10T06:10:51.430Z,96800.47
2023-06-10T06:13:18.430Z,96795.69
2023-06-10T06:15:45.862Z,96802.00
2023-06-10T06:18:12.986Z,96793.69
2023-06-10T06:20:39.841Z,96798.16
2023-06-10T06:23:06.845Z,96793.34
2023-06-10T06:25:34.255Z,96797.38
2023-06-10T06:28:00.963Z,96794.34
2023-06-10T06:30:27.681Z,96797.56
2023-06-10T06:32:54.880Z,96793.31
2023-06-10T06:35:21.657Z,96799.75
2023-06-10T06:37:48.489Z,96795.78
2023-06-10T06:40:22.968Z,96796.00
2023-06-10T06:42:49.921Z,96800.56
2023-06-10T06:45:36.944Z,96801.19
2023-06-10T06:48:04.008Z,96801.47
2023-06-10T06:50:30.905Z,96801.34
2023-06-10T06:52:57.607Z,96804.72
2023-06-10T06:55:24.385Z,96805.19
2023-06-10T06:57:51.084Z,96811.47
2023-06-10T07:00:18.206Z,96809.09
2023-06-10T07:02:45.042Z,96811.47
2023-06-10T07:05:11.995Z,96803.75
2023-06-10T07:07:39.014Z,96807.09
2023-06-10T07:10:06.349Z,96814.41
2023-06-10T07:12:33.164Z,96820.78
2023-06-10T07:15:00.057Z,96822.59
2023-06-10T07:17:28.178Z,96820.34
2023-06-10T07:19:58.441Z,96822.06
2023-06-10T07:22:25.593Z,96814.50
2023-06-10T07:24:53.056Z,96822.13
2023-06-10T07:27:19.838Z,96825.06
2023-06-10T07:29:46.468Z,96824.69
2023-06-10T07:32:13.190Z,96826.25
2023-06-10T07:34:40.054Z,96814.03
2023-06-10T07:37:07.322Z,96815.59
2023-06-10T07:39:34.104Z,96818.31
2023-06-10T07:42:00.838Z,96816.22
2023-06-10T07:44:27.714Z,96822.97
2023-06-10T07:46:54.558Z,96815.16
2023-06-10T07:49:21.441Z,96817.63
2023-06-10T07:51:48.317Z,96815.75
2023-06-10T07:54:16.052Z,96811.63
2023-06-10T07:56:44.575Z,96815.91
2023-06-10T07:59:11.246Z,96813.31
2023-06-10T08:01:40.439Z,96814.16
2023-06-10T08:04:08.204Z,96810.53
2023-06-10T08:06:35.025Z,96815.13
2023-06-10T08:09:01.753Z,96810.19
2023-06-10T08:11:29.453Z,96815.06
2023-06-10T08:13:56.185Z,96814.72
2023-06-10T08:16:23.047Z,96824.22
2023-06-10T08:18:54.095Z,96823.66
2023-06-10T08:21:22.479Z,96816.44
2023-06-10T08:23:49.362Z,96817.75
2023-06-10T08:26:16.181Z,96815.00
2023-06-10T08:28:42.888Z,96813.47
2023-06-10T08:31:09.652Z,96809.31
2023-06-10T08:33:36.358Z,96803.47
2023-06-10T08:36:03.266Z,96812.31
2023-06-10T08:38:30.093Z,96799.28
2023-06-10T08:41:01.878Z,96802.06
2023-06-10T08:43:28.581Z,96803.28
2023-06-10T08:45:59.400Z,96802.38
2023-06-10T08:48:28.724Z,96805.78
2023-06-10T08:50:56.748Z,96801.13
2023-06-10T08:53:25.201Z,96800.84
2023-06-10T08:55:55.139Z,96801.31
2023-06-10T08:58:22.126Z,96792.34
2023-06-10T09:00:48.927Z,96789.09
2023-06-10T09:03:15.913Z,96796.97
2023-06-10T09:05:43.169Z,96782.50
2023-06-10T09:08:10.370Z,96787.44
2023-06-10T09:10:37.192Z,96788.31
2023-06-10T09:13:04.044Z,96785.78
2023-06-10T09:15:30.740Z,96778.81
2023-06-10T09:17:57.646Z,96774.59
2023-06-10T09:20:24.349Z,96779.44
2023-06-10T09:22:51.172Z,96784.25
2023-06-10T09:25:18.376Z,96780.06
2023-06-10T09:27:55.052Z,96777.63
2023-06-10T09:30:30.057Z,96785.38
2023-06-10T09:33:01.632Z,96781.38
2023-06-10T09:35:30.212Z,96783.72
2023-06-10T09:38:01.473Z,96768.38
2023-06-10T09:40:31.483Z,96781.28
2023-06-10T09:43:00.358Z,96780.09
2023-06-10T09:45:33.870Z,96782.13
2023-06-10T09:48:01.824Z,96776.84
2023-06-10T09:50:29.146Z,96780.22
2023-06-10T09:52:56.056Z,96779.47
2023-06-10T09:55:22.890Z,96782.44
2023-06-10T09:57:55.050Z,96773.63
2023-06-10T10:00:23.671Z,96776.38
2023-06-10T10:02:53.422Z,96777.81
2023-06-10T10:05:24.097Z,96777.03
2023-06-10T10:07:52.226Z,96777.88
2023-06-10T10:10:21.207Z,96779.97
2023-06-10T10:12:49.199Z,96779.22
2023-06-10T10:15:19.415Z,96772.13
2023-06-10T10:17:51.638Z,96766.38
2023-06-10T10:20:21.948Z,96765.88
2023-06-10T10:22:51.057Z,96757.47
2023-06-10T10:25:24.549Z,96761.59
2023-06-10T10:28:13.051Z,96764.97
2023-06-10T10:31:00.870Z,96762.34
2023-06-10T10:33:36.317Z,96758.31
2023-06-10T10:36:03.439Z,96760.22
2023-06-10T10:38:30.481Z,96760.44
2023-06-10T10:41:00.731Z,96760.47
2023-06-10T10:43:29.108Z,96757.78
2023-06-10T10:46:02.882Z,96753.75
2023-06-10T10:48:38.283Z,96753.97
2023-06-10T10:51:05.174Z,96761.81
2023-06-10T10:53:31.830Z,96769.72
2023-06-10T10:56:09.838Z,96757.97
2023-06-10T10:58:37.856Z,96761.59
2023-06-10T11:01:15.834Z,96755.28
2023-06-10T11:03:48.212Z,96748.28
2023-06-10T11:06:16.742Z,96741.94
2023-06-10T11:08:45.011Z,96750.38
2023-06-10T11:11:27.024Z,96751.03
2023-06-10T11:14:03.053Z,96754.56
2023-06-10T11:16:30.400Z,96752.47
2023-06-10T11:18:57.853Z,96748.97
2023-06-10T11:21:28.367Z,96757.34
2023-06-10T11:24:01.616Z,96751.00
2023-06-10T11:26:32.396Z,96746.13
2023-06-10T11:28:59.198Z,96753.84
2023-06-10T11:31:34.017Z,96751.75
2023-06-10T11:34:04.332Z,96746.72
2023-06-10T11:36:31.406Z,96744.59
2023-06-10T11:38:59.132Z,96738.97
2023-06-10T11:41:30.291Z,96746.16
2023-06-10T11:43:58.207Z,96739.16
2023-06-10T11:46:27.813Z,96740.56
2023-06-10T11:48:56.284Z,96746.16
2023-06-10T11:51:23.360Z,96746.88
2023-06-10T11:53:50.520Z,96738.44
2023-06-10T11:56:30.460Z,96739.16
2023-06-10T11:59:08.681Z,96737.75
2023-06-10T12:01:40.632Z,96737.03
2023-06-10T12:04:10.694Z,96746.13
2023-06-10T12:06:50.165Z,96737.03
2023-06-10T12:09:43.396Z,96737.75
2023-06-10T12:12:11.767Z,96733.50
2023-06-10T12:15:00.356Z,96725.78
2023-06-10T12:17:33.801Z,96732.84
2023-06-10T12:20:01.651Z,96732.84
2023-06-10T12:22:28.579Z,96722.97
2023-06-10T12:25:04.628Z,96721.44
2023-06-10T12:27:32.831Z,96722.72
2023-06-10T12:30:04.922Z,96723.25
2023-06-10T12:32:43.930Z,96714.91
2023-06-10T12:35:14.457Z,96712.13
2023-06-10T12:37:43.434Z,96720.47
2023-06-10T12:40:11.677Z,96708.38
2023-06-10T12:42:39.037Z,96711.84
2023-06-10T12:45:08.682Z,96703.25
2023-06-10T12:47:39.142Z,96706.41
2023-06-10T12:50:07.009Z,96707.53
2023-06-10T12:52:33.747Z,96713.91
2023-06-10T12:55:01.772Z,96716.03
2023-06-10T12:57:28.980Z,96698.50
2023-06-10T12:59:58.428Z,96701.22
2023-06-10T13:02:25.610Z,96701.50
2023-06-10T13:04:52.480Z,96694.75
2023-06-10T13:07:19.328Z,96701.84
2023-06-10T13:09:50.034Z,96698.44
2023-06-10T13:12:21.058Z,96694.97
2023-06-10T13:14:54.886Z,96687.22
2023-06-10T13:17:22.960Z,96690.75
2023-06-10T13:19:50.980Z,96688.66
2023-06-10T13:22:17.780Z,96680.13
2023-06-10T13:24:44.898Z,96679.88
2023-06-10T13:27:11.645Z,96692.19
2023-06-10T13:29:38.412Z,96678.84
2023-06-10T13:32:05.377Z,96677.56
2023-06-10T13:34:32.079Z,96677.53
2023-06-10T13:36:58.961Z,96672.63
2023-06-10T13:39:25.742Z,96668.22
2023-06-10T13:41:53.178Z,96658.09
2023-06-10T13:44:20.004Z,96656.94
2023-06-10T13:46:49.887Z,96666.47
2023-06-10T13:49:17.026Z,96665.91
2023-06-10T13:51:43.766Z,96664.94
2023-06-10T13:54:10.519Z,96659.84
2023-06-10T13:56:39.911Z,96654.34
2023-06-10T13:59:06.747Z,96649.34
2023-06-10T14:01:33.429Z,96659.00
2023-06-10T14:04:00.361Z,96665.03
2023-06-10T14:06:27.743Z,96658.28
2023-06-10T14:08:55.750Z,96660.66
2023-06-10T14:11:22.478Z,96662.94
2023-06-10T14:13:49.409Z,96653.75
2023-06-10T14:16:16.099Z,96648.56
2023-06-10T14:18:42.817Z,96653.94
2023-06-10T14:21:09.562Z,96648.56
2023-06-10T14:23:36.452Z,96653.16
2023-06-10T14:26:04.180Z,96635.50
2023-06-10T14:28:31.003Z,96636.63
2023-06-10T14:30:58.820Z,96635.38
2023-06-10T14:33:25.701Z,96646.06
2023-06-10T14:35:52.357Z,96636.31
2023-06-10T14:38:19.484Z,96635.03
2023-06-10T14:40:46.180Z,96629.97
2023-06-10T14:43:13.027Z,96632.63
2023-06-10T14:45:43.078Z,96635.31
2023-06-10T14:48:09.978Z,96632.63
2023-06-10T14:50:37.045Z,96632.00
2023-06-10T14:53:03.976Z,96632.78
2023-06-10T14:55:30.661Z,96634.81
2023-06-10T14:57:58.860Z,96626.34
2023-06-10T15:00:26.524Z,96625.66
2023-06-10T15:02:54.527Z,96630.09
2023-06-10T15:05:21.679Z,96626.41
2023-06-10T15:07:48.832Z,96631.47
2023-06-10T15:10:16.493Z,96621.63
2023-06-10T15:12:43.373Z,96624.91
2023-06-10T15:15:10.479Z,96631.19
2023-06-10T15:17:37.851Z,96624.41
2023-06-10T15:20:05.527Z,96624.97
2023-06-10T15:22:34.695Z,96622.22
2023-06-10T15:25:11.187Z,96625.59
2023-06-10T15:27:44.009Z,96629.81
2023-06-10T15:30:11.095Z,96618.09
2023-06-10T15:32:37.850Z,96613.44
2023-06-10T15:35:04.863Z,96611.53
2023-06-10T15:37:31.671Z,96620.63
2023-06-10T15:39:58.437Z,96618.94
2023-06-10T15:42:27.652Z,96609.41
2023-06-10T15:44:54.337Z,96618.63
2023-06-10T15:47:21.764Z,96622.94
2023-06-10T15:49:48.656Z,96623.63
2023-06-10T15:52:15.492Z,96623.72
2023-06-10T15:54:42.206Z,96622.69
2023-06-10T15:57:09.564Z,96613.03
2023-06-10T15:59:36.525Z,96618.34
2023-06-10T16:02:04.974Z,96618.06
2023-06-10T16:04:31.730Z,96612.38
2023-06-10T16:06:58.727Z,96608.66
2023-06-10T16:09:25.448Z,96607.75
2023-06-10T16:11:52.242Z,96608.56
2023-06-10T16:14:18.925Z,96603.09
2023-06-10T16:16:45.790Z,96600.03
2023-06-10T16:19:12.572Z,96595.91
2023-06-10T16:21:41.420Z,96594.50
2023-06-10T16:24:09.310Z,96602.47
2023-06-10T16:26:36.145Z,96589.06
2023-06-10T16:29:02.825Z,96587.97
2023-06-10T16:31:29.573Z,96581.66
2023-06-10T16:33:56.336Z,96596.06
2023-06-10T16:36:22.982Z,96578.38
2023-06-10T16:38:49.649Z,96570.75
2023-06-10T16:41:16.429Z,96587.09
2023-06-10T16:43:43.032Z,96590.69
2023-06-10T16:46:09.780Z,96597.63
2023-06-10T16:48:36.444Z,96597.59
2023-06-10T16:51:03.299Z,96600.00
2023-06-10T16:53:30.168Z,96604.13
2023-06-10T16:55:56.983Z,96603.84
2023-06-10T16:58:23.656Z,96605.53
2023-06-10T17:00:50.676Z,96600.94
2023-06-10T17:03:17.421Z,96603.34
2023-06-10T17:05:44.224Z,96614.19
2023-06-10T17:08:11.002Z,96613.94
2023-06-10T17:10:37.877Z,96610.56
2023-06-10T17:13:04.632Z,96617.38
2023-06-10T17:15:31.436Z,96616.84
2023-06-10T17:17:58.226Z,96620.13
2023-06-10T17:20:24.981Z,96629.91
2023-06-10T17:22:51.855Z,96616.50
2023-06-10T17:25:18.591Z,96628.81
2023-06-10T17:27:45.310Z,96633.41
2023-06-10T17:30:12.390Z,96635.75
2023-06-10T17:32:41.415Z,96637.22
2023-06-10T17:35:10.000Z,96630.22
2023-06-10T17:37:36.905Z,96633.41
2023-06-10T17:40:04.208Z,96631.16
2023-06-10T17:42:30.973Z,96626.75
2023-06-10T17:44:57.690Z,96632.47
2023-06-10T17:47:24.538Z,96628.16
2023-06-10T17:49:51.477Z,96634.22
2023-06-10T17:52:18.239Z,96639.16
2023-06-10T17:54:44.964Z,96642.53
2023-06-10T17:57:11.710Z,96637.88
2023-06-10T17:59:38.505Z,96634.44
2023-06-10T18:02:05.667Z,96641.78
2023-06-10T18:04:32.546Z,96642.38
2023-06-10T18:06:59.224Z,96640.47
2023-06-10T18:09:27.008Z,96644.13
2023-06-10T18:11:54.395Z,96642.22
2023-06-10T18:14:21.146Z,96643.28
2023-06-10T18:16:48.062Z,96645.69
2023-06-10T18:19:16.341Z,96645.84
2023-06-10T18:21:43.077Z,96652.22
2023-06-10T18:24:09.908Z,96657.16
2023-06-10T18:26:36.785Z,96662.72
2023-06-10T18:29:03.432Z,96656.41
2023-06-10T18:31:30.864Z,96663.38
2023-06-10T18:33:57.612Z,96665.38
2023-06-10T18:36:24.343Z,96660.44
2023-06-10T18:38:51.697Z,96665.88
2023-06-10T18:41:18.412Z,96668.59
2023-06-10T18:43:45.035Z,96667.09
2023-06-10T18:46:11.829Z,96673.22
2023-06-10T18:48:40.691Z,96670.28
2023-06-10T18:51:07.858Z,96668.03
2023-06-10T18:53:34.556Z,96674.81
2023-06-10T18:56:04.177Z,96684.13
2023-06-10T18:58:33.748Z,96688.84
2023-06-10T19:01:01.292Z,96679.31
2023-06-10T19:03:30.054Z,96681.28
2023-06-10T19:05:57.981Z,96690.59
2023-06-10T19:08:24.864Z,96690.47
2023-06-10T19:10:51.566Z,96701.22
2023-06-10T19:13:18.539Z,96695.91
2023-06-10T19:15:45.321Z,96702.91
2023-06-10T19:18:12.179Z,96707.63
2023-06-10T19:20:40.739Z,96708.16
2023-06-10T19:23:07.622Z,96708.09
2023-06-10T19:25:34.299Z,96711.06
2023-06-10T19:28:01.185Z,96711.19
2023-06-10T19:30:28.550Z,96715.97
2023-06-10T19:32:55.528Z,96722.72
2023-06-10T19:35:22.213Z,96726.47
2023-06-10T19:37:48.962Z,96722.38
2023-06-10T19:40:15.795Z,96723.97
2023-06-10T19:42:42.583Z,96727.88
2023-06-10T19:45:10.070Z,96726.78
2023-06-10T19:47:37.589Z,96728.34
2023-06-10T19:50:04.601Z,96736.22
2023-06-10T19:52:33.113Z,96731.25
2023-06-10T19:54:59.776Z,96734.75
2023-06-10T19:57:27.062Z,96736.69
2023-06-10T19:59:53.786Z,96743.91
2023-06-10T20:02:21.506Z,96741.88
2023-06-10T20:04:48.266Z,96754.50
2023-06-10T20:07:15.060Z,96745.28
2023-06-10T20:09:41.724Z,96752.88
2023-06-10T20:12:09.136Z,96747.72
2023-06-10T20:14:35.780Z,96754.91
2023-06-10T20:17:02.479Z,96751.34
2023-06-10T20:19:29.183Z,96751.06
2023-06-10T20:21:56.917Z,96756.53
2023-06-10T20:24:23.749Z,96755.41
2023-06-10T20:26:50.770Z,96753.13
2023-06-10T20:29:18.681Z,96757.84
2023-06-10T20:31:46.748Z,96758.44
2023-06-10T20:34:13.622Z,96755.69
2023-06-10T20:36:40.517Z,96754.38
2023-06-10T20:39:07.381Z,96758.44
2023-06-10T20:41:35.605Z,96755.53
2023-06-10T20:44:02.304Z,96752.06
2023-06-10T20:46:29.054Z,96758.66
2023-06-10T20:48:55.905Z,96755.69
2023-06-10T20:51:22.938Z,96757.75
2023-06-10T20:53:49.642Z,96759.97
2023-06-10T20:56:16.441Z,96755.22
2023-06-10T20:58:43.113Z,96764.16
2023-06-10T21:01:09.920Z,96758.25
2023-06-10T21:03:36.803Z,96752.50
2023-06-10T21:06:03.720Z,96761.91
2023-06-10T21:08:30.485Z,96763.97
2023-06-10T21:10:57.357Z,96754.50
2023-06-10T21:13:24.008Z,96761.22
2023-06-10T21:15:50.817Z,96757.34
2023-06-10T21:18:17.475Z,96753.81
2023-06-10T21:20:44.251Z,96756.25
2023-06-10T21:23:11.670Z,96774.72
2023-06-10T21:25:38.611Z,96769.66
2023-06-10T21:28:05.421Z,96771.66
2023-06-10T21:30:32.134Z,96763.84
2023-06-10T21:32:58.894Z,96765.09
2023-06-10T21:35:25.719Z,96766.44
2023-06-10T21:37:52.359Z,96766.25
2023-06-10T21:40:19.872Z,96764.06
2023-06-10T21:42:46.495Z,96761.59
2023-06-10T21:45:13.481Z,96763.97
2023-06-10T21:47:40.612Z,96765.63
2023-06-10T21:50:07.914Z,96759.94
2023-06-10T21:52:34.712Z,96764.16
2023-06-10T21:55:01.689Z,96758.28
2023-06-10T21:57:28.443Z,96760.25
2023-06-10T21:59:55.283Z,96763.84
2023-06-10T22:02:22.082Z,96767.75
2023-06-10T22:04:49.019Z,96761.97
2023-06-10T22:07:15.765Z,96767.94
2023-06-10T22:09:49.443Z,96757.00
2023-06-10T22:12:17.209Z,96764.75
2023-06-10T22:14:44.343Z,96775.25
2023-06-10T22:17:12.010Z,96767.88
2023-06-10T22:19:39.956Z,96777.75
2023-06-10T22:22:07.642Z,96780.06
2023-06-10T22:24:34.968Z,96783.72
2023-06-10T22:27:02.055Z,96781.56
2023-06-10T22:29:28.810Z,96786.19
2023-06-10T22:31:56.259Z,96777.47
2023-06-10T22:34:23.519Z,96784.31
2023-06-10T22:36:50.412Z,96781.28
2023-06-10T22:39:17.184Z,96783.16
2023-06-10T22:41:44.007Z,96779.69
2023-06-10T22:44:10.944Z,96774.81
2023-06-10T22:46:37.713Z,96777.00
2023-06-10T22:49:04.930Z,96777.59
2023-06-10T22:51:31.667Z,96766.31
2023-06-10T22:53:58.881Z,96770.31
2023-06-10T22:56:27.191Z,96768.06
2023-06-10T22:58:54.095Z,96773.31
2023-06-10T23:01:21.048Z,96773.50
2023-06-10T23:03:48.041Z,96768.59
2023-06-10T23:06:15.979Z,96770.13
2023-06-10T23:08:42.759Z,96771.78
2023-06-10T23:11:09.462Z,96768.81
2023-06-10T23:13:36.254Z,96777.88
2023-06-10T23:16:03.015Z,96769.69
2023-06-10T23:18:29.794Z,96771.44
2023-06-10T23:20:57.286Z,96777.47
2023-06-10T23:23:33.514Z,96773.72
2023-06-10T23:26:03.525Z,96775.56
2023-06-10T23:28:30.325Z,96777.25
2023-06-10T23:30:57.261Z,96778.66
2023-06-10T23:33:24.834Z,96780.09
2023-06-10T23:35:51.726Z,96781.28
2023-06-10T23:38:18.501Z,96779.09
2023-06-10T23:40:45.515Z,96778.59
2023-06-10T23:43:15.549Z,96780.41
2023-06-10T23:45:42.400Z,96784.72
2023-06-10T23:48:09.336Z,96783.28
2023-06-10T23:50:38.041Z,96784.59
2023-06-10T23:53:06.674Z,96782.78
2023-06-10T23:55:35.449Z,96778.91
2023-06-10T23:58:03.504Z,96785.72
